sensor_id;sensor_type;location;lat;lon;timestamp;pressure;altitude;pressure_sealevel;temperature;humidity
61963;BME280;47927;42.646;23.096;2023-07-28T00:01:35;92286.44;;;12.50;58.06
61963;BME280;47927;42.646;23.096;2023-07-28T00:04:01;92265.81;;;12.23;58.35
61963;BME280;47927;42.646;23.096;2023-07-28T00:06:29;92284.59;;;12.54;57.96
61963;BME280;47927;42.646;23.096;2023-07-28T00:08:55;92291.34;;;12.62;57.34
61963;BME280;47927;42.646;23.096;2023-07-28T00:11:20;92286.13;;;12.66;57.21
61963;BME280;47927;42.646;23.096;2023-07-28T00:14:11;92284.97;;;12.63;57.54
61963;BME280;47927;42.646;23.096;2023-07-28T00:17:20;92281.84;;;12.25;58.32
61963;BME280;47927;42.646;23.096;2023-07-28T00:19:45;92281.13;;;12.28;58.55
61963;BME280;47927;42.646;23.096;2023-07-28T00:22:11;92278.94;;;12.41;58.19
61963;BME280;47927;42.646;23.096;2023-07-28T00:24:36;92277.06;;;12.42;57.90
61963;BME280;47927;42.646;23.096;2023-07-28T00:27:02;92267.75;;;12.44;57.63
61963;BME280;47927;42.646;23.096;2023-07-28T00:29:27;92272.59;;;12.46;57.67
61963;BME280;47927;42.646;23.096;2023-07-28T00:31:54;92279.19;;;12.18;58.62
61963;BME280;47927;42.646;23.096;2023-07-28T00:34:20;92271.66;;;12.02;59.34
61963;BME280;47927;42.646;23.096;2023-07-28T00:36:45;92267.94;;;12.03;59.37
61963;BME280;47927;42.646;23.096;2023-07-28T00:39:12;92270.19;;;12.08;58.98
61963;BME280;47927;42.646;23.096;2023-07-28T00:41:39;92274.72;;;12.15;58.73
61963;BME280;47927;42.646;23.096;2023-07-28T00:44:04;92248.50;;;11.97;59.05
61963;BME280;47927;42.646;23.096;2023-07-28T00:46:30;92270.13;;;11.98;59.22
61963;BME280;47927;42.646;23.096;2023-07-28T00:48:56;92272.41;;;11.99;59.40
61963;BME280;47927;42.646;23.096;2023-07-28T00:51:22;92263.09;;;12.02;59.35
61963;BME280;47927;42.646;23.096;2023-07-28T00:53:47;92269.47;;;12.15;58.89
61963;BME280;47927;42.646;23.096;2023-07-28T00:56:13;92276.25;;;12.27;58.30
61963;BME280;47927;42.646;23.096;2023-07-28T00:58:39;92276.59;;;12.25;58.37
61963;BME280;47927;42.646;23.096;2023-07-28T01:01:05;92275.88;;;12.25;58.42
61963;BME280;47927;42.646;23.096;2023-07-28T01:03:30;92282.53;;;12.15;58.69
61963;BME280;47927;42.646;23.096;2023-07-28T01:11:05;92273.91;;;12.04;59.22
61963;BME280;47927;42.646;23.096;2023-07-28T01:13:30;92271.38;;;12.18;58.66
61963;BME280;47927;42.646;23.096;2023-07-28T01:15:56;92264.25;;;12.15;58.72
61963;BME280;47927;42.646;23.096;2023-07-28T01:18:23;92265.31;;;12.00;59.22
61963;BME280;47927;42.646;23.096;2023-07-28T01:20:50;92265.84;;;11.72;59.92
61963;BME280;47927;42.646;23.096;2023-07-28T01:26:11;92260.41;;;11.95;59.62
61963;BME280;47927;42.646;23.096;2023-07-28T01:28:39;92267.19;;;12.03;59.16
61963;BME280;47927;42.646;23.096;2023-07-28T01:31:25;92269.81;;;12.10;58.95
61963;BME280;47927;42.646;23.096;2023-07-28T01:33:50;92265.69;;;12.02;59.14
61963;BME280;47927;42.646;23.096;2023-07-28T01:36:16;92266.47;;;12.06;58.79
61963;BME280;47927;42.646;23.096;2023-07-28T01:38:41;92258.22;;;12.00;58.98
61963;BME280;47927;42.646;23.096;2023-07-28T01:41:08;92258.22;;;12.04;58.98
61963;BME280;47927;42.646;23.096;2023-07-28T01:43:33;92253.69;;;11.90;59.12
61963;BME280;47927;42.646;23.096;2023-07-28T01:45:59;92254.84;;;11.96;59.36
61963;BME280;47927;42.646;23.096;2023-07-28T01:48:26;92259.69;;;12.01;58.61
61963;BME280;47927;42.646;23.096;2023-07-28T01:50:51;92252.97;;;11.97;58.96
61963;BME280;47927;42.646;23.096;2023-07-28T01:53:17;92250.88;;;11.65;59.79
61963;BME280;47927;42.646;23.096;2023-07-28T01:55:43;92250.47;;;11.59;60.29
61963;BME280;47927;42.646;23.096;2023-07-28T01:58:09;92258.41;;;11.77;59.85
61963;BME280;47927;42.646;23.096;2023-07-28T02:00:35;92243.59;;;11.89;59.46
61963;BME280;47927;42.646;23.096;2023-07-28T02:03:00;92251.09;;;11.94;59.44
61963;BME280;47927;42.646;23.096;2023-07-28T02:05:28;92250.72;;;11.95;59.07
61963;BME280;47927;42.646;23.096;2023-07-28T02:07:55;92243.28;;;12.01;58.87
61963;BME280;47927;42.646;23.096;2023-07-28T02:10:22;92251.84;;;11.98;58.94
61963;BME280;47927;42.646;23.096;2023-07-28T02:12:49;92260.47;;;12.02;58.45
61963;BME280;47927;42.646;23.096;2023-07-28T02:15:15;92267.94;;;12.07;58.57
61963;BME280;47927;42.646;23.096;2023-07-28T02:17:41;92259.25;;;11.85;59.09
61963;BME280;47927;42.646;23.096;2023-07-28T02:20:07;92256.97;;;11.83;59.30
61963;BME280;47927;42.646;23.096;2023-07-28T02:22:36;92251.13;;;11.97;58.92
61963;BME280;47927;42.646;23.096;2023-07-28T02:25:02;92251.91;;;12.05;58.76
61963;BME280;47927;42.646;23.096;2023-07-28T02:27:28;92248.16;;;11.99;58.72
61963;BME280;47927;42.646;23.096;2023-07-28T02:29:54;92257.41;;;11.89;59.20
61963;BME280;47927;42.646;23.096;2023-07-28T02:32:21;92259.53;;;11.76;59.77
61963;BME280;47927;42.646;23.096;2023-07-28T02:34:46;92257.69;;;11.80;59.83
61963;BME280;47927;42.646;23.096;2023-07-28T02:37:14;92262.19;;;11.83;59.72
61963;BME280;47927;42.646;23.096;2023-07-28T02:39:39;92262.63;;;11.89;59.55
61963;BME280;47927;42.646;23.096;2023-07-28T02:42:05;92257.25;;;11.71;59.68
61963;BME280;47927;42.646;23.096;2023-07-28T02:44:31;92260.38;;;11.88;59.74
61963;BME280;47927;42.646;23.096;2023-07-28T02:46:57;92267.19;;;12.03;59.13
61963;BME280;47927;42.646;23.096;2023-07-28T02:49:22;92253.38;;;11.99;58.95
61963;BME280;47927;42.646;23.096;2023-07-28T02:51:48;92270.94;;;12.09;58.61
61963;BME280;47927;42.646;23.096;2023-07-28T02:54:13;92278.75;;;12.05;58.64
61963;BME280;47927;42.646;23.096;2023-07-28T02:56:39;92268.34;;;12.09;58.24
61963;BME280;47927;42.646;23.096;2023-07-28T02:59:09;92272.81;;;12.12;57.68
61963;BME280;47927;42.646;23.096;2023-07-28T03:01:34;92272.44;;;12.10;57.59
61963;BME280;47927;42.646;23.096;2023-07-28T03:04:02;92270.19;;;12.05;57.54
61963;BME280;47927;42.646;23.096;2023-07-28T03:06:32;92257.81;;;11.98;57.82
61963;BME280;47927;42.646;23.096;2023-07-28T03:09:01;92261.91;;;11.92;58.30
61963;BME280;47927;42.646;23.096;2023-07-28T03:11:43;92267.03;;;11.81;58.61
61963;BME280;47927;42.646;23.096;2023-07-28T03:14:09;92270.34;;;11.75;59.25
61963;BME280;47927;42.646;23.096;2023-07-28T03:16:35;92269.91;;;11.66;59.60
61963;BME280;47927;42.646;23.096;2023-07-28T03:19:01;92268.50;;;11.75;59.38
61963;BME280;47927;42.646;23.096;2023-07-28T03:21:30;92271.19;;;11.90;58.91
61963;BME280;47927;42.646;23.096;2023-07-28T03:23:56;92273.88;;;11.97;58.49
61963;BME280;47927;42.646;23.096;2023-07-28T03:26:22;92279.47;;;11.99;58.43
61963;BME280;47927;42.646;23.096;2023-07-28T03:28:47;92277.94;;;11.94;58.71
61963;BME280;47927;42.646;23.096;2023-07-28T03:31:13;92282.44;;;11.94;58.85
61963;BME280;47927;42.646;23.096;2023-07-28T03:33:38;92291.00;;;11.94;58.94
61963;BME280;47927;42.646;23.096;2023-07-28T03:36:04;92291.09;;;12.08;58.06
61963;BME280;47927;42.646;23.096;2023-07-28T03:38:32;92289.97;;;12.13;58.10
61963;BME280;47927;42.646;23.096;2023-07-28T03:40:57;92284.03;;;12.16;58.25
61963;BME280;47927;42.646;23.096;2023-07-28T03:43:23;92282.50;;;12.08;58.68
61963;BME280;47927;42.646;23.096;2023-07-28T03:45:49;92280.69;;;12.19;58.48
61963;BME280;47927;42.646;23.096;2023-07-28T03:48:14;92287.06;;;12.25;58.85
61963;BME280;47927;42.646;23.096;2023-07-28T03:50:40;92292.75;;;12.45;58.86
61963;BME280;47927;42.646;23.096;2023-07-28T03:53:05;92290.22;;;12.63;58.84
61963;BME280;47927;42.646;23.096;2023-07-28T03:55:32;92298.09;;;12.81;58.40
61963;BME280;47927;42.646;23.096;2023-07-28T03:57:57;92294.41;;;12.89;58.35
61963;BME280;47927;42.646;23.096;2023-07-28T04:00:23;92294.44;;;13.14;57.63
61963;BME280;47927;42.646;23.096;2023-07-28T04:02:48;92286.97;;;13.23;57.62
61963;BME280;47927;42.646;23.096;2023-07-28T04:05:14;92290.78;;;13.30;57.52
61963;BME280;47927;42.646;23.096;2023-07-28T04:07:39;92288.94;;;13.62;57.37
61963;BME280;47927;42.646;23.096;2023-07-28T04:10:05;92288.88;;;14.05;57.26
61963;BME280;47927;42.646;23.096;2023-07-28T04:12:31;92287.59;;;14.60;57.27
61963;BME280;47927;42.646;23.096;2023-07-28T04:14:56;92295.56;;;15.23;55.65
61963;BME280;47927;42.646;23.096;2023-07-28T04:17:22;92291.06;;;16.17;52.84
61963;BME280;47927;42.646;23.096;2023-07-28T04:19:48;92291.56;;;17.62;49.56
61963;BME280;47927;42.646;23.096;2023-07-28T04:22:13;92296.31;;;19.37;44.44
61963;BME280;47927;42.646;23.096;2023-07-28T04:24:41;92298.47;;;21.37;40.02
61963;BME280;47927;42.646;23.096;2023-07-28T04:27:07;92294.97;;;22.83;37.96
61963;BME280;47927;42.646;23.096;2023-07-28T04:29:32;92307.50;;;24.07;34.18
61963;BME280;47927;42.646;23.096;2023-07-28T04:31:58;92299.53;;;24.99;32.73
61963;BME280;47927;42.646;23.096;2023-07-28T04:34:28;92308.25;;;25.60;31.89
61963;BME280;47927;42.646;23.096;2023-07-28T04:37:11;92311.66;;;26.27;29.73
61963;BME280;47927;42.646;23.096;2023-07-28T04:39:54;92309.53;;;26.31;30.30
61963;BME280;47927;42.646;23.096;2023-07-28T04:42:19;92316.41;;;26.71;29.60
61963;BME280;47927;42.646;23.096;2023-07-28T04:44:46;92319.03;;;27.10;29.10
61963;BME280;47927;42.646;23.096;2023-07-28T04:47:12;92313.84;;;27.81;28.25
61963;BME280;47927;42.646;23.096;2023-07-28T04:49:38;92315.59;;;27.54;28.05
61963;BME280;47927;42.646;23.096;2023-07-28T04:52:24;92311.78;;;26.72;29.61
61963;BME280;47927;42.646;23.096;2023-07-28T04:55:05;92311.84;;;25.90;30.67
61963;BME280;47927;42.646;23.096;2023-07-28T04:57:31;92308.84;;;25.04;32.22
61963;BME280;47927;42.646;23.096;2023-07-28T04:59:57;92300.84;;;24.94;32.53
61963;BME280;47927;42.646;23.096;2023-07-28T05:02:22;92309.16;;;24.60;33.25
61963;BME280;47927;42.646;23.096;2023-07-28T05:04:48;92307.41;;;23.79;34.56
61963;BME280;47927;42.646;23.096;2023-07-28T05:07:13;92307.75;;;23.91;34.94
61963;BME280;47927;42.646;23.096;2023-07-28T05:09:39;92307.06;;;24.18;34.60
61963;BME280;47927;42.646;23.096;2023-07-28T05:12:05;92305.34;;;24.61;32.58
61963;BME280;47927;42.646;23.096;2023-07-28T05:14:37;92306.94;;;25.56;31.96
61963;BME280;47927;42.646;23.096;2023-07-28T05:17:03;92303.66;;;26.66;30.38
61963;BME280;47927;42.646;23.096;2023-07-28T05:19:55;92313.34;;;27.97;27.06
61963;BME280;47927;42.646;23.096;2023-07-28T05:22:37;92304.41;;;29.08;24.02
61963;BME280;47927;42.646;23.096;2023-07-28T05:25:03;92296.94;;;30.78;22.06
61963;BME280;47927;42.646;23.096;2023-07-28T05:27:31;92310.19;;;32.92;20.47
61963;BME280;47927;42.646;23.096;2023-07-28T05:29:56;92320.03;;;35.08;18.37
61963;BME280;47927;42.646;23.096;2023-07-28T05:32:22;92321.81;;;36.02;16.83
61963;BME280;47927;42.646;23.096;2023-07-28T05:35:20;92309.94;;;37.54;15.57
61963;BME280;47927;42.646;23.096;2023-07-28T05:37:46;92308.41;;;37.87;14.86
61963;BME280;47927;42.646;23.096;2023-07-28T05:40:12;92310.75;;;38.61;15.33
61963;BME280;47927;42.646;23.096;2023-07-28T05:42:39;92309.66;;;38.36;15.38
61963;BME280;47927;42.646;23.096;2023-07-28T05:45:06;92300.34;;;39.48;14.20
61963;BME280;47927;42.646;23.096;2023-07-28T05:47:31;92309.22;;;41.11;12.21
61963;BME280;47927;42.646;23.096;2023-07-28T05:49:57;92298.69;;;42.33;12.39
61963;BME280;47927;42.646;23.096;2023-07-28T05:52:23;92308.06;;;42.82;10.76
61963;BME280;47927;42.646;23.096;2023-07-28T05:54:49;92298.16;;;42.69;11.64
61963;BME280;47927;42.646;23.096;2023-07-28T05:57:15;92296.28;;;42.89;10.36
61963;BME280;47927;42.646;23.096;2023-07-28T05:59:40;92295.03;;;43.17;10.82
61963;BME280;47927;42.646;23.096;2023-07-28T06:02:06;92297.56;;;43.60;10.22
61963;BME280;47927;42.646;23.096;2023-07-28T06:04:50;92301.50;;;44.03;10.13
61963;BME280;47927;42.646;23.096;2023-07-28T06:07:15;92306.22;;;43.93;9.89
61963;BME280;47927;42.646;23.096;2023-07-28T06:09:42;92304.56;;;43.43;10.77
61963;BME280;47927;42.646;23.096;2023-07-28T06:12:09;92300.28;;;43.06;11.16
61963;BME280;47927;42.646;23.096;2023-07-28T06:14:34;92307.22;;;43.88;10.31
61963;BME280;47927;42.646;23.096;2023-07-28T06:17:02;92297.81;;;44.38;10.65
61963;BME280;47927;42.646;23.096;2023-07-28T06:19:30;92301.03;;;43.60;10.98
61963;BME280;47927;42.646;23.096;2023-07-28T06:21:55;92282.59;;;43.71;10.56
61963;BME280;47927;42.646;23.096;2023-07-28T06:24:21;92287.50;;;44.09;10.13
61963;BME280;47927;42.646;23.096;2023-07-28T06:26:47;92293.16;;;44.21;10.06
61963;BME280;47927;42.646;23.096;2023-07-28T06:29:12;92292.28;;;45.25;9.23
61963;BME280;47927;42.646;23.096;2023-07-28T06:31:38;92297.94;;;44.98;9.15
61963;BME280;47927;42.646;23.096;2023-07-28T06:34:04;92293.34;;;44.91;9.74
61963;BME280;47927;42.646;23.096;2023-07-28T06:36:30;92295.97;;;45.59;9.32
61963;BME280;47927;42.646;23.096;2023-07-28T06:38:56;92296.00;;;45.80;8.60
61963;BME280;47927;42.646;23.096;2023-07-28T06:41:22;92293.31;;;45.70;9.76
61963;BME280;47927;42.646;23.096;2023-07-28T06:43:54;92296.31;;;45.75;9.17
61963;BME280;47927;42.646;23.096;2023-07-28T06:46:20;92296.03;;;44.13;10.08
61963;BME280;47927;42.646;23.096;2023-07-28T06:48:47;92293.47;;;45.12;9.65
61963;BME280;47927;42.646;23.096;2023-07-28T06:51:15;92298.97;;;44.34;9.59
61963;BME280;47927;42.646;23.096;2023-07-28T06:53:41;92295.22;;;44.88;9.59
61963;BME280;47927;42.646;23.096;2023-07-28T06:56:07;92296.97;;;44.93;10.73
61963;BME280;47927;42.646;23.096;2023-07-28T06:58:33;92298.53;;;46.50;8.52
61963;BME280;47927;42.646;23.096;2023-07-28T07:00:59;92299.81;;;46.06;8.40
61963;BME280;47927;42.646;23.096;2023-07-28T07:03:24;92298.72;;;45.90;8.58
61963;BME280;47927;42.646;23.096;2023-07-28T07:05:50;92299.47;;;44.04;9.61
61963;BME280;47927;42.646;23.096;2023-07-28T07:08:16;92295.97;;;42.33;10.42
61963;BME280;47927;42.646;23.096;2023-07-28T07:10:48;92294.19;;;41.28;11.40
61963;BME280;47927;42.646;23.096;2023-07-28T07:13:15;92293.44;;;42.10;10.97
61963;BME280;47927;42.646;23.096;2023-07-28T07:15:42;92299.22;;;42.39;10.64
61963;BME280;47927;42.646;23.096;2023-07-28T07:18:08;92293.81;;;42.49;10.52
61963;BME280;47927;42.646;23.096;2023-07-28T07:20:35;92298.06;;;42.77;9.94
61963;BME280;47927;42.646;23.096;2023-07-28T07:23:01;92307.50;;;43.92;10.35
61963;BME280;47927;42.646;23.096;2023-07-28T07:25:27;92307.16;;;43.14;11.04
61963;BME280;47927;42.646;23.096;2023-07-28T07:27:52;92300.72;;;42.32;10.69
61963;BME280;47927;42.646;23.096;2023-07-28T07:30:18;92308.59;;;44.16;10.03
61963;BME280;47927;42.646;23.096;2023-07-28T07:32:43;92307.97;;;43.34;11.22
61963;BME280;47927;42.646;23.096;2023-07-28T07:35:09;92307.94;;;43.88;10.71
61963;BME280;47927;42.646;23.096;2023-07-28T07:37:34;92314.72;;;42.71;10.43
61963;BME280;47927;42.646;23.096;2023-07-28T07:40:00;92314.94;;;43.72;11.08
61963;BME280;47927;42.646;23.096;2023-07-28T07:42:27;92310.56;;;43.96;10.25
61963;BME280;47927;42.646;23.096;2023-07-28T07:44:53;92300.41;;;43.89;11.16
61963;BME280;47927;42.646;23.096;2023-07-28T07:47:19;92310.28;;;43.11;11.85
61963;BME280;47927;42.646;23.096;2023-07-28T07:49:45;92314.00;;;43.06;10.83
61963;BME280;47927;42.646;23.096;2023-07-28T07:52:11;92319.00;;;43.71;10.50
61963;BME280;47927;42.646;23.096;2023-07-28T07:54:37;92315.47;;;43.61;10.91
61963;BME280;47927;42.646;23.096;2023-07-28T07:57:04;92302.28;;;43.86;10.81
61963;BME280;47927;42.646;23.096;2023-07-28T07:59:30;92322.41;;;43.99;10.68
61963;BME280;47927;42.646;23.096;2023-07-28T08:01:57;92316.75;;;44.33;9.99
61963;BME280;47927;42.646;23.096;2023-07-28T08:04:25;92314.97;;;43.82;10.41
61963;BME280;47927;42.646;23.096;2023-07-28T08:06:52;92313.72;;;43.56;10.27
61963;BME280;47927;42.646;23.096;2023-07-28T08:09:19;92290.91;;;44.00;10.39
61963;BME280;47927;42.646;23.096;2023-07-28T08:11:46;92306.66;;;43.99;9.62
61963;BME280;47927;42.646;23.096;2023-07-28T08:14:11;92310.34;;;44.31;9.67
61963;BME280;47927;42.646;23.096;2023-07-28T08:16:38;92308.16;;;44.20;9.53
61963;BME280;47927;42.646;23.096;2023-07-28T08:19:04;92302.56;;;43.90;9.95
61963;BME280;47927;42.646;23.096;2023-07-28T08:21:29;92300.91;;;44.05;10.51
61963;BME280;47927;42.646;23.096;2023-07-28T08:23:56;92297.28;;;42.84;10.64
61963;BME280;47927;42.646;23.096;2023-07-28T08:26:22;92312.78;;;43.16;9.84
61963;BME280;47927;42.646;23.096;2023-07-28T08:28:47;92302.88;;;43.04;8.88
61963;BME280;47927;42.646;23.096;2023-07-28T08:31:13;92305.56;;;42.76;9.66
61963;BME280;47927;42.646;23.096;2023-07-28T08:33:39;92303.81;;;43.43;9.46
61963;BME280;47927;42.646;23.096;2023-07-28T08:36:04;92306.91;;;43.20;10.33
61963;BME280;47927;42.646;23.096;2023-07-28T08:38:30;92306.66;;;43.08;10.61
61963;BME280;47927;42.646;23.096;2023-07-28T08:40:56;92295.97;;;42.85;10.87
61963;BME280;47927;42.646;23.096;2023-07-28T08:43:24;92311.78;;;43.21;10.05
61963;BME280;47927;42.646;23.096;2023-07-28T08:45:51;92305.97;;;42.90;10.35
61963;BME280;47927;42.646;23.096;2023-07-28T08:48:18;92298.78;;;42.95;11.38
61963;BME280;47927;42.646;23.096;2023-07-28T08:50:45;92296.41;;;41.54;11.29
61963;BME280;47927;42.646;23.096;2023-07-28T08:53:11;92296.84;;;42.36;10.52
61963;BME280;47927;42.646;23.096;2023-07-28T08:55:36;92287.78;;;43.39;10.07
61963;BME280;47927;42.646;23.096;2023-07-28T08:58:19;92292.56;;;42.60;10.26
61963;BME280;47927;42.646;23.096;2023-07-28T09:01:03;92291.53;;;41.70;10.11
61963;BME280;47927;42.646;23.096;2023-07-28T09:03:30;92285.16;;;41.67;10.94
61963;BME280;47927;42.646;23.096;2023-07-28T09:06:01;92276.81;;;41.91;10.54
61963;BME280;47927;42.646;23.096;2023-07-28T09:08:27;92275.56;;;41.34;11.43
61963;BME280;47927;42.646;23.096;2023-07-28T09:10:52;92275.53;;;40.53;11.44
61963;BME280;47927;42.646;23.096;2023-07-28T09:13:19;92261.88;;;40.53;11.83
61963;BME280;47927;42.646;23.096;2023-07-28T09:15:46;92261.31;;;40.54;12.05
61963;BME280;47927;42.646;23.096;2023-07-28T09:18:14;92257.09;;;40.76;11.77
61963;BME280;47927;42.646;23.096;2023-07-28T09:20:41;92258.13;;;40.81;11.34
61963;BME280;47927;42.646;23.096;2023-07-28T09:23:08;92252.66;;;40.41;11.35
61963;BME280;47927;42.646;23.096;2023-07-28T09:25:35;92245.94;;;40.26;11.13
61963;BME280;47927;42.646;23.096;2023-07-28T09:28:01;92248.94;;;40.53;11.77
61963;BME280;47927;42.646;23.096;2023-07-28T09:30:43;92247.25;;;39.64;12.65
61963;BME280;47927;42.646;23.096;2023-07-28T09:33:09;92237.81;;;39.73;12.08
61963;BME280;47927;42.646;23.096;2023-07-28T09:35:47;92242.72;;;39.97;12.05
61963;BME280;47927;42.646;23.096;2023-07-28T09:38:14;92248.41;;;40.55;11.27
61963;BME280;47927;42.646;23.096;2023-07-28T09:40:40;92231.84;;;40.53;11.79
61963;BME280;47927;42.646;23.096;2023-07-28T09:43:07;92227.63;;;39.88;12.78
61963;BME280;47927;42.646;23.096;2023-07-28T09:45:34;92233.75;;;40.12;12.62
61963;BME280;47927;42.646;23.096;2023-07-28T09:48:02;92233.28;;;39.45;12.55
61963;BME280;47927;42.646;23.096;2023-07-28T09:50:32;92238.56;;;39.81;12.00
61963;BME280;47927;42.646;23.096;2023-07-28T09:53:03;92234.72;;;39.76;12.65
61963;BME280;47927;42.646;23.096;2023-07-28T09:55:29;92227.44;;;39.63;13.11
61963;BME280;47927;42.646;23.096;2023-07-28T09:57:56;92227.97;;;40.00;12.11
61963;BME280;47927;42.646;23.096;2023-07-28T10:00:23;92226.50;;;40.22;11.86
61963;BME280;47927;42.646;23.096;2023-07-28T10:02:49;92221.41;;;39.04;12.41
61963;BME280;47927;42.646;23.096;2023-07-28T10:05:18;92230.19;;;38.37;14.31
61963;BME280;47927;42.646;23.096;2023-07-28T10:07:46;92226.06;;;38.07;14.21
61963;BME280;47927;42.646;23.096;2023-07-28T10:10:13;92230.72;;;38.28;14.02
61963;BME280;47927;42.646;23.096;2023-07-28T10:12:46;92226.47;;;38.48;14.41
61963;BME280;47927;42.646;23.096;2023-07-28T10:15:14;92227.41;;;38.22;14.07
61963;BME280;47927;42.646;23.096;2023-07-28T10:17:44;92226.38;;;38.33;13.34
61963;BME280;47927;42.646;23.096;2023-07-28T10:23:02;92218.09;;;37.52;14.73
61963;BME280;47927;42.646;23.096;2023-07-28T10:25:28;92216.59;;;37.93;14.57
61963;BME280;47927;42.646;23.096;2023-07-28T10:27:53;92210.09;;;38.04;13.49
61963;BME280;47927;42.646;23.096;2023-07-28T10:30:51;92210.50;;;38.08;14.09
61963;BME280;47927;42.646;23.096;2023-07-28T10:33:31;92203.22;;;37.53;14.51
61963;BME280;47927;42.646;23.096;2023-07-28T10:35:59;92192.50;;;37.27;15.36
61963;BME280;47927;42.646;23.096;2023-07-28T10:38:36;92190.66;;;36.66;16.23
61963;BME280;47927;42.646;23.096;2023-07-28T10:41:16;92200.44;;;35.82;16.76
61963;BME280;47927;42.646;23.096;2023-07-28T10:43:44;92196.88;;;35.74;18.36
61963;BME280;47927;42.646;23.096;2023-07-28T10:46:15;92193.66;;;35.75;16.87
61963;BME280;47927;42.646;23.096;2023-07-28T10:48:46;92192.50;;;35.97;16.38
61963;BME280;47927;42.646;23.096;2023-07-28T10:51:25;92194.06;;;36.33;17.85
61963;BME280;47927;42.646;23.096;2023-07-28T10:53:52;92187.22;;;36.66;17.16
61963;BME280;47927;42.646;23.096;2023-07-28T10:56:19;92196.34;;;36.28;17.74
61963;BME280;47927;42.646;23.096;2023-07-28T10:58:45;92183.16;;;36.46;16.50
61963;BME280;47927;42.646;23.096;2023-07-28T11:01:11;92184.72;;;36.68;15.39
61963;BME280;47927;42.646;23.096;2023-07-28T11:03:36;92183.59;;;36.50;16.79
61963;BME280;47927;42.646;23.096;2023-07-28T11:06:03;92184.88;;;36.36;17.10
61963;BME280;47927;42.646;23.096;2023-07-28T11:08:29;92181.31;;;36.54;16.93
61963;BME280;47927;42.646;23.096;2023-07-28T11:10:54;92179.59;;;36.64;16.52
61963;BME280;47927;42.646;23.096;2023-07-28T11:13:20;92173.97;;;36.62;16.16
61963;BME280;47927;42.646;23.096;2023-07-28T11:15:47;92177.41;;;34.98;17.76
61963;BME280;47927;42.646;23.096;2023-07-28T11:18:15;92171.84;;;34.77;17.84
61963;BME280;47927;42.646;23.096;2023-07-28T11:20:41;92159.03;;;34.77;18.17
61963;BME280;47927;42.646;23.096;2023-07-28T11:23:06;92166.50;;;35.35;17.99
61963;BME280;47927;42.646;23.096;2023-07-28T11:25:34;92145.78;;;35.38;17.53
61963;BME280;47927;42.646;23.096;2023-07-28T11:28:03;92149.81;;;35.18;18.97
61963;BME280;47927;42.646;23.096;2023-07-28T11:30:32;92147.31;;;35.33;17.34
61963;BME280;47927;42.646;23.096;2023-07-28T11:33:01;92155.97;;;35.45;17.84
61963;BME280;47927;42.646;23.096;2023-07-28T11:35:28;92163.28;;;35.37;18.26
61963;BME280;47927;42.646;23.096;2023-07-28T11:37:55;92157.41;;;34.87;17.11
61963;BME280;47927;42.646;23.096;2023-07-28T11:40:22;92155.56;;;34.96;18.35
61963;BME280;47927;42.646;23.096;2023-07-28T11:42:50;92150.06;;;34.69;18.74
61963;BME280;47927;42.646;23.096;2023-07-28T11:45:18;92148.75;;;34.76;18.18
61963;BME280;47927;42.646;23.096;2023-07-28T11:48:10;92153.56;;;34.26;18.27
61963;BME280;47927;42.646;23.096;2023-07-28T11:50:38;92156.81;;;33.81;19.83
61963;BME280;47927;42.646;23.096;2023-07-28T11:53:05;92145.00;;;33.60;20.36
61963;BME280;47927;42.646;23.096;2023-07-28T11:55:37;92150.41;;;33.60;20.87
61963;BME280;47927;42.646;23.096;2023-07-28T11:58:04;92154.53;;;33.85;20.23
61963;BME280;47927;42.646;23.096;2023-07-28T12:00:32;92149.06;;;33.91;19.66
61963;BME280;47927;42.646;23.096;2023-07-28T12:03:08;92146.34;;;34.34;19.63
61963;BME280;47927;42.646;23.096;2023-07-28T12:05:42;92143.16;;;33.73;18.89
61963;BME280;47927;42.646;23.096;2023-07-28T12:08:39;92136.59;;;33.88;20.01
61963;BME280;47927;42.646;23.096;2023-07-28T12:11:05;92136.41;;;34.05;20.36
61963;BME280;47927;42.646;23.096;2023-07-28T12:13:31;92124.31;;;33.87;19.27
61963;BME280;47927;42.646;23.096;2023-07-28T12:15:57;92133.69;;;33.86;19.28
61963;BME280;47927;42.646;23.096;2023-07-28T12:18:29;92132.84;;;33.47;20.28
61963;BME280;47927;42.646;23.096;2023-07-28T12:20:55;92127.56;;;33.61;19.66
61963;BME280;47927;42.646;23.096;2023-07-28T12:23:22;92125.72;;;33.20;21.47
61963;BME280;47927;42.646;23.096;2023-07-28T12:25:49;92127.53;;;33.11;20.92
61963;BME280;47927;42.646;23.096;2023-07-28T12:28:15;92117.75;;;33.33;19.87
61963;BME280;47927;42.646;23.096;2023-07-28T12:30:41;92109.16;;;33.10;21.37
61963;BME280;47927;42.646;23.096;2023-07-28T12:33:07;92113.16;;;33.52;20.94
61963;BME280;47927;42.646;23.096;2023-07-28T12:35:33;92113.16;;;33.28;20.70
61963;BME280;47927;42.646;23.096;2023-07-28T12:38:01;92103.63;;;33.46;19.33
61963;BME280;47927;42.646;23.096;2023-07-28T12:40:29;92110.00;;;32.99;20.73
61963;BME280;47927;42.646;23.096;2023-07-28T12:42:55;92106.19;;;33.38;21.11
61963;BME280;47927;42.646;23.096;2023-07-28T12:45:21;92097.19;;;33.05;21.67
61963;BME280;47927;42.646;23.096;2023-07-28T12:47:47;92114.09;;;33.06;21.52
61963;BME280;47927;42.646;23.096;2023-07-28T12:50:12;92106.13;;;33.44;21.05
61963;BME280;47927;42.646;23.096;2023-07-28T12:52:38;92102.69;;;33.19;20.25
61963;BME280;47927;42.646;23.096;2023-07-28T12:55:04;92093.34;;;33.20;19.85
61963;BME280;47927;42.646;23.096;2023-07-28T12:57:30;92094.94;;;33.09;19.62
61963;BME280;47927;42.646;23.096;2023-07-28T12:59:56;92096.47;;;32.69;21.12
61963;BME280;47927;42.646;23.096;2023-07-28T13:02:22;92088.25;;;32.56;20.79
61963;BME280;47927;42.646;23.096;2023-07-28T13:04:47;92083.47;;;31.90;22.86